sensor_id;sensor_type;location;lat;lon;timestamp;temperature;humidity
25811;DHT22;13645;52.460;13.910;2023-07-08T00:01:11;15.90;99.90
25811;DHT22;13645;52.460;13.910;2023-07-08T00:03:39;15.80;99.90
25811;DHT22;13645;52.460;13.910;2023-07-08T00:06:19;15.80;99.90
25811;DHT22;13645;52.460;13.910;2023-07-08T00:08:46;15.80;99.90
25811;DHT22;13645;52.460;13.910;2023-07-08T00:11:14;15.70;99.90
25811;DHT22;13645;52.460;13.910;2023-07-08T00:13:41;15.70;99.90
25811;DHT22;13645;52.460;13.910;2023-07-08T00:16:11;15.60;99.90
25811;DHT22;13645;52.460;13.910;2023-07-08T00:18:38;15.60;99.90
25811;DHT22;13645;52.460;13.910;2023-07-08T00:21:13;15.60;99.90
25811;DHT22;13645;52.460;13.910;2023-07-08T00:23:44;15.60;99.90
25811;DHT22;13645;52.460;13.910;2023-07-08T00:26:23;15.60;99.90
25811;DHT22;13645;52.460;13.910;2023-07-08T00:28:51;15.60;99.90
25811;DHT22;13645;52.460;13.910;2023-07-08T00:31:18;15.60;99.90
25811;DHT22;13645;52.460;13.910;2023-07-08T00:33:52;15.60;99.90
25811;DHT22;13645;52.460;13.910;2023-07-08T00:36:23;15.50;99.90
25811;DHT22;13645;52.460;13.910;2023-07-08T00:38:51;15.40;99.90
25811;DHT22;13645;52.460;13.910;2023-07-08T00:43:55;15.20;99.90
25811;DHT22;13645;52.460;13.910;2023-07-08T00:51:45;15.00;99.90
25811;DHT22;13645;52.460;13.910;2023-07-08T00:54:13;15.00;99.90
25811;DHT22;13645;52.460;13.910;2023-07-08T00:56:54;15.00;99.90
25811;DHT22;13645;52.460;13.910;2023-07-08T01:01:53;14.90;99.90
25811;DHT22;13645;52.460;13.910;2023-07-08T01:04:24;14.90;99.90
25811;DHT22;13645;52.460;13.910;2023-07-08T01:06:59;14.80;99.90
25811;DHT22;13645;52.460;13.910;2023-07-08T01:09:39;14.80;99.90
25811;DHT22;13645;52.460;13.910;2023-07-08T01:12:14;14.80;99.90
25811;DHT22;13645;52.460;13.910;2023-07-08T01:14:42;14.70;99.90
25811;DHT22;13645;52.460;13.910;2023-07-08T01:17:10;14.70;99.90
25811;DHT22;13645;52.460;13.910;2023-07-08T01:19:41;14.70;99.90
25811;DHT22;13645;52.460;13.910;2023-07-08T01:22:09;14.70;99.90
25811;DHT22;13645;52.460;13.910;2023-07-08T01:24:38;14.70;99.90
25811;DHT22;13645;52.460;13.910;2023-07-08T01:27:11;14.70;99.90
25811;DHT22;13645;52.460;13.910;2023-07-08T01:29:39;14.70;99.90
25811;DHT22;13645;52.460;13.910;2023-07-08T01:32:06;14.70;99.90
25811;DHT22;13645;52.460;13.910;2023-07-08T01:34:34;14.70;99.90
25811;DHT22;13645;52.460;13.910;2023-07-08T01:37:04;14.70;99.90
25811;DHT22;13645;52.460;13.910;2023-07-08T01:39:32;14.70;99.90
25811;DHT22;13645;52.460;13.910;2023-07-08T01:41:59;14.60;99.90
25811;DHT22;13645;52.460;13.910;2023-07-08T01:44:30;14.60;99.90
25811;DHT22;13645;52.460;13.910;2023-07-08T01:47:01;14.60;99.90
25811;DHT22;13645;52.460;13.910;2023-07-08T01:49:29;14.50;99.90
25811;DHT22;13645;52.460;13.910;2023-07-08T01:51:57;14.50;99.90
25811;DHT22;13645;52.460;13.910;2023-07-08T01:54:25;14.50;99.90
25811;DHT22;13645;52.460;13.910;2023-07-08T01:56:56;14.50;99.90
25811;DHT22;13645;52.460;13.910;2023-07-08T01:59:24;14.50;99.90
25811;DHT22;13645;52.460;13.910;2023-07-08T02:01:51;14.50;99.90
25811;DHT22;13645;52.460;13.910;2023-07-08T02:04:22;14.40;99.90
25811;DHT22;13645;52.460;13.910;2023-07-08T02:06:54;14.40;99.90
25811;DHT22;13645;52.460;13.910;2023-07-08T02:09:21;14.40;99.90
25811;DHT22;13645;52.460;13.910;2023-07-08T02:11:48;14.30;99.90
25811;DHT22;13645;52.460;13.910;2023-07-08T02:14:15;14.30;99.90
25811;DHT22;13645;52.460;13.910;2023-07-08T02:16:42;14.30;99.90
25811;DHT22;13645;52.460;13.910;2023-07-08T02:19:10;14.20;99.90
25811;DHT22;13645;52.460;13.910;2023-07-08T02:21:38;14.20;99.90
25811;DHT22;13645;52.460;13.910;2023-07-08T02:24:06;14.10;99.90
25811;DHT22;13645;52.460;13.910;2023-07-08T02:26:33;14.00;99.90
25811;DHT22;13645;52.460;13.910;2023-07-08T02:29:00;14.00;99.90
25811;DHT22;13645;52.460;13.910;2023-07-08T02:31:27;14.00;99.90
25811;DHT22;13645;52.460;13.910;2023-07-08T02:33:54;14.00;99.90
25811;DHT22;13645;52.460;13.910;2023-07-08T02:36:21;14.00;99.90
25811;DHT22;13645;52.460;13.910;2023-07-08T02:38:48;14.00;99.90
25811;DHT22;13645;52.460;13.910;2023-07-08T02:41:15;14.00;99.90
25811;DHT22;13645;52.460;13.910;2023-07-08T02:43:42;14.00;99.90
25811;DHT22;13645;52.460;13.910;2023-07-08T02:46:08;13.90;99.90
25811;DHT22;13645;52.460;13.910;2023-07-08T02:48:35;13.90;99.90
25811;DHT22;13645;52.460;13.910;2023-07-08T02:51:04;13.80;99.90
25811;DHT22;13645;52.460;13.910;2023-07-08T02:53:31;13.80;99.90
25811;DHT22;13645;52.460;13.910;2023-07-08T02:55:58;13.80;99.90
25811;DHT22;13645;52.460;13.910;2023-07-08T02:58:25;13.80;99.90
25811;DHT22;13645;52.460;13.910;2023-07-08T03:00:55;13.80;99.90
25811;DHT22;13645;52.460;13.910;2023-07-08T03:03:26;13.80;99.90
25811;DHT22;13645;52.460;13.910;2023-07-08T03:06:03;13.80;99.90
25811;DHT22;13645;52.460;13.910;2023-07-08T03:08:32;13.90;99.90
25811;DHT22;13645;52.460;13.910;2023-07-08T03:11:00;13.90;99.90
25811;DHT22;13645;52.460;13.910;2023-07-08T03:13:29;13.90;99.90
25811;DHT22;13645;52.460;13.910;2023-07-08T03:15:57;13.80;99.90
25811;DHT22;13645;52.460;13.910;2023-07-08T03:18:25;13.80;99.90
25811;DHT22;13645;52.460;13.910;2023-07-08T03:20:56;13.80;99.90
25811;DHT22;13645;52.460;13.910;2023-07-08T03:23:24;13.90;99.90
25811;DHT22;13645;52.460;13.910;2023-07-08T03:25:52;13.90;99.90
25811;DHT22;13645;52.460;13.910;2023-07-08T03:28:18;13.90;99.90
25811;DHT22;13645;52.460;13.910;2023-07-08T03:30:51;13.90;99.90
25811;DHT22;13645;52.460;13.910;2023-07-08T03:33:18;13.90;99.90
25811;DHT22;13645;52.460;13.910;2023-07-08T03:35:45;13.90;99.90
25811;DHT22;13645;52.460;13.910;2023-07-08T03:38:12;14.00;99.90
25811;DHT22;13645;52.460;13.910;2023-07-08T03:40:39;14.00;99.90
25811;DHT22;13645;52.460;13.910;2023-07-08T03:43:05;14.00;99.90
25811;DHT22;13645;52.460;13.910;2023-07-08T03:45:32;14.10;99.90
25811;DHT22;13645;52.460;13.910;2023-07-08T03:47:59;14.10;99.90
25811;DHT22;13645;52.460;13.910;2023-07-08T03:50:27;14.10;99.90
25811;DHT22;13645;52.460;13.910;2023-07-08T03:52:55;14.20;99.90
25811;DHT22;13645;52.460;13.910;2023-07-08T03:55:22;14.20;99.90
25811;DHT22;13645;52.460;13.910;2023-07-08T03:57:49;14.20;99.90
25811;DHT22;13645;52.460;13.910;2023-07-08T04:00:16;14.20;99.90
25811;DHT22;13645;52.460;13.910;2023-07-08T04:02:44;14.20;99.90
25811;DHT22;13645;52.460;13.910;2023-07-08T04:05:20;14.20;99.90
25811;DHT22;13645;52.460;13.910;2023-07-08T04:07:48;14.30;99.90
25811;DHT22;13645;52.460;13.910;2023-07-08T04:10:15;14.40;99.90
25811;DHT22;13645;52.460;13.910;2023-07-08T04:12:43;14.40;99.90
25811;DHT22;13645;52.460;13.910;2023-07-08T04:15:11;14.50;99.90
25811;DHT22;13645;52.460;13.910;2023-07-08T04:17:48;14.60;99.90
25811;DHT22;13645;52.460;13.910;2023-07-08T04:20:17;14.60;99.90
25811;DHT22;13645;52.460;13.910;2023-07-08T04:22:45;14.70;99.90
25811;DHT22;13645;52.460;13.910;2023-07-08T04:25:12;14.70;99.90
25811;DHT22;13645;52.460;13.910;2023-07-08T04:27:41;14.80;99.90
25811;DHT22;13645;52.460;13.910;2023-07-08T04:30:22;14.90;99.90
25811;DHT22;13645;52.460;13.910;2023-07-08T04:32:50;15.00;99.90
25811;DHT22;13645;52.460;13.910;2023-07-08T04:35:18;15.10;99.90
25811;DHT22;13645;52.460;13.910;2023-07-08T04:37:44;15.20;99.90
25811;DHT22;13645;52.460;13.910;2023-07-08T04:40:18;15.30;99.90
25811;DHT22;13645;52.460;13.910;2023-07-08T04:42:46;15.50;99.90
25811;DHT22;13645;52.460;13.910;2023-07-08T04:45:15;15.50;99.90
25811;DHT22;13645;52.460;13.910;2023-07-08T04:47:43;15.60;99.90
25811;DHT22;13645;52.460;13.910;2023-07-08T04:50:10;15.80;99.90
25811;DHT22;13645;52.460;13.910;2023-07-08T04:52:37;15.90;99.90
25811;DHT22;13645;52.460;13.910;2023-07-08T04:55:04;16.00;99.90
25811;DHT22;13645;52.460;13.910;2023-07-08T04:57:31;16.10;99.90
25811;DHT22;13645;52.460;13.910;2023-07-08T04:59:58;16.20;99.90
25811;DHT22;13645;52.460;13.910;2023-07-08T05:02:25;16.30;99.90
25811;DHT22;13645;52.460;13.910;2023-07-08T05:04:52;16.40;99.90
25811;DHT22;13645;52.460;13.910;2023-07-08T05:07:18;16.50;99.90
25811;DHT22;13645;52.460;13.910;2023-07-08T05:09:45;16.60;99.90
25811;DHT22;13645;52.460;13.910;2023-07-08T05:12:12;16.70;99.90
25811;DHT22;13645;52.460;13.910;2023-07-08T05:14:39;16.80;99.90
25811;DHT22;13645;52.460;13.910;2023-07-08T05:17:06;16.90;99.90
25811;DHT22;13645;52.460;13.910;2023-07-08T05:19:32;16.90;99.90
25811;DHT22;13645;52.460;13.910;2023-07-08T05:21:59;17.10;99.90
25811;DHT22;13645;52.460;13.910;2023-07-08T05:24:26;17.10;99.90
25811;DHT22;13645;52.460;13.910;2023-07-08T05:26:53;17.30;99.90
25811;DHT22;13645;52.460;13.910;2023-07-08T05:29:19;17.40;99.90
25811;DHT22;13645;52.460;13.910;2023-07-08T05:31:46;17.50;99.90
25811;DHT22;13645;52.460;13.910;2023-07-08T05:34:14;17.70;99.90
25811;DHT22;13645;52.460;13.910;2023-07-08T05:36:41;17.80;99.90
25811;DHT22;13645;52.460;13.910;2023-07-08T05:39:08;17.90;99.90
25811;DHT22;13645;52.460;13.910;2023-07-08T05:41:35;18.00;99.90
25811;DHT22;13645;52.460;13.910;2023-07-08T05:44:02;18.20;99.90
25811;DHT22;13645;52.460;13.910;2023-07-08T05:46:29;18.30;99.90
25811;DHT22;13645;52.460;13.910;2023-07-08T05:48:55;18.50;99.80
25811;DHT22;13645;52.460;13.910;2023-07-08T05:51:28;18.60;95.80
25811;DHT22;13645;52.460;13.910;2023-07-08T05:53:55;18.80;99.70
25811;DHT22;13645;52.460;13.910;2023-07-08T05:56:22;18.90;96.00
25811;DHT22;13645;52.460;13.910;2023-07-08T05:58:48;19.10;90.90
25811;DHT22;13645;52.460;13.910;2023-07-08T06:01:15;19.20;99.90
25811;DHT22;13645;52.460;13.910;2023-07-08T06:03:42;19.30;97.60
25811;DHT22;13645;52.460;13.910;2023-07-08T06:06:09;19.50;83.30
25811;DHT22;13645;52.460;13.910;2023-07-08T06:08:36;19.70;92.30
25811;DHT22;13645;52.460;13.910;2023-07-08T06:11:02;19.80;93.80
25811;DHT22;13645;52.460;13.910;2023-07-08T06:13:30;20.00;99.90
25811;DHT22;13645;52.460;13.910;2023-07-08T06:15:57;20.20;99.90
25811;DHT22;13645;52.460;13.910;2023-07-08T06:18:24;20.40;89.00
25811;DHT22;13645;52.460;13.910;2023-07-08T06:20:54;20.60;91.40
25811;DHT22;13645;52.460;13.910;2023-07-08T06:23:22;20.80;70.70
25811;DHT22;13645;52.460;13.910;2023-07-08T06:25:49;21.00;71.30
25811;DHT22;13645;52.460;13.910;2023-07-08T06:28:16;21.20;43.30
25811;DHT22;13645;52.460;13.910;2023-07-08T06:30:43;21.40;23.00
25811;DHT22;13645;52.460;13.910;2023-07-08T06:33:10;21.60;17.40
25811;DHT22;13645;52.460;13.910;2023-07-08T06:35:39;21.80;1.00
25811;DHT22;13645;52.460;13.910;2023-07-08T06:38:07;22.00;2.90
25811;DHT22;13645;52.460;13.910;2023-07-08T06:40:34;22.20;1.00
25811;DHT22;13645;52.460;13.910;2023-07-08T06:43:02;22.40;1.00
25811;DHT22;13645;52.460;13.910;2023-07-08T06:45:29;22.60;1.00
25811;DHT22;13645;52.460;13.910;2023-07-08T06:47:56;22.90;1.00
25811;DHT22;13645;52.460;13.910;2023-07-08T06:50:23;23.10;1.00
25811;DHT22;13645;52.460;13.910;2023-07-08T06:52:50;23.30;1.00
25811;DHT22;13645;52.460;13.910;2023-07-08T06:55:17;23.50;1.00
25811;DHT22;13645;52.460;13.910;2023-07-08T06:57:44;23.70;1.00
25811;DHT22;13645;52.460;13.910;2023-07-08T07:00:11;23.90;1.00
25811;DHT22;13645;52.460;13.910;2023-07-08T07:02:38;24.20;1.00
25811;DHT22;13645;52.460;13.910;2023-07-08T07:05:06;24.40;1.00
25811;DHT22;13645;52.460;13.910;2023-07-08T07:07:33;24.50;1.00
25811;DHT22;13645;52.460;13.910;2023-07-08T07:10:01;24.60;1.00
25811;DHT22;13645;52.460;13.910;2023-07-08T07:12:29;24.90;1.00
25811;DHT22;13645;52.460;13.910;2023-07-08T07:14:56;25.00;1.00
25811;DHT22;13645;52.460;13.910;2023-07-08T07:17:25;25.10;1.00
25811;DHT22;13645;52.460;13.910;2023-07-08T07:19:54;25.30;1.00
25811;DHT22;13645;52.460;13.910;2023-07-08T07:22:20;25.50;1.00
25811;DHT22;13645;52.460;13.910;2023-07-08T07:24:48;25.80;1.00
25811;DHT22;13645;52.460;13.910;2023-07-08T07:27:15;26.00;1.00
25811;DHT22;13645;52.460;13.910;2023-07-08T07:29:47;26.20;1.00
25811;DHT22;13645;52.460;13.910;2023-07-08T07:32:16;26.40;1.00
25811;DHT22;13645;52.460;13.910;2023-07-08T07:34:46;26.70;1.00
25811;DHT22;13645;52.460;13.910;2023-07-08T07:37:15;26.90;1.00
25811;DHT22;13645;52.460;13.910;2023-07-08T07:39:42;27.10;1.00
25811;DHT22;13645;52.460;13.910;2023-07-08T07:42:10;27.40;99.90
25811;DHT22;13645;52.460;13.910;2023-07-08T07:44:40;27.50;99.90
25811;DHT22;13645;52.460;13.910;2023-07-08T07:47:08;27.70;99.90
25811;DHT22;13645;52.460;13.910;2023-07-08T07:49:35;27.90;99.90
25811;DHT22;13645;52.460;13.910;2023-07-08T07:52:02;28.10;5.90
25811;DHT22;13645;52.460;13.910;2023-07-08T07:54:29;28.30;99.90
25811;DHT22;13645;52.460;13.910;2023-07-08T07:56:56;28.50;99.90
25811;DHT22;13645;52.460;13.910;2023-07-08T07:59:23;28.70;1.00
25811;DHT22;13645;52.460;13.910;2023-07-08T08:01:50;28.90;1.00
25811;DHT22;13645;52.460;13.910;2023-07-08T08:04:17;29.10;1.00
25811;DHT22;13645;52.460;13.910;2023-07-08T08:06:44;29.30;1.00
25811;DHT22;13645;52.460;13.910;2023-07-08T08:09:11;29.40;1.00
25811;DHT22;13645;52.460;13.910;2023-07-08T08:11:37;29.50;1.00
25811;DHT22;13645;52.460;13.910;2023-07-08T08:14:04;29.70;1.00
25811;DHT22;13645;52.460;13.910;2023-07-08T08:16:31;29.90;99.90
25811;DHT22;13645;52.460;13.910;2023-07-08T08:18:58;30.10;99.90
25811;DHT22;13645;52.460;13.910;2023-07-08T08:21:25;30.20;5.20
25811;DHT22;13645;52.460;13.910;2023-07-08T08:23:52;30.30;1.00
25811;DHT22;13645;52.460;13.910;2023-07-08T08:26:18;30.30;52.60
25811;DHT22;13645;52.460;13.910;2023-07-08T08:28:45;30.40;99.90
25811;DHT22;13645;52.460;13.910;2023-07-08T08:31:12;30.70;63.10
25811;DHT22;13645;52.460;13.910;2023-07-08T08:33:39;30.70;99.90
25811;DHT22;13645;52.460;13.910;2023-07-08T08:36:06;30.90;1.00
25811;DHT22;13645;52.460;13.910;2023-07-08T08:38:32;30.90;99.90
25811;DHT22;13645;52.460;13.910;2023-07-08T08:41:03;31.00;91.00
25811;DHT22;13645;52.460;13.910;2023-07-08T08:43:36;31.00;74.40
25811;DHT22;13645;52.460;13.910;2023-07-08T08:48:48;31.30;1.00
25811;DHT22;13645;52.460;13.910;2023-07-08T08:51:16;31.50;1.00
25811;DHT22;13645;52.460;13.910;2023-07-08T08:53:45;31.60;99.90
25811;DHT22;13645;52.460;13.910;2023-07-08T08:56:19;31.80;99.90
25811;DHT22;13645;52.460;13.910;2023-07-08T08:59:19;31.90;1.00
25811;DHT22;13645;52.460;13.910;2023-07-08T09:01:50;32.00;1.00
25811;DHT22;13645;52.460;13.910;2023-07-08T09:04:32;32.10;1.00
25811;DHT22;13645;52.460;13.910;2023-07-08T09:07:08;32.20;1.00
25811;DHT22;13645;52.460;13.910;2023-07-08T09:09:47;32.40;1.00
25811;DHT22;13645;52.460;13.910;2023-07-08T09:12:20;32.50;99.90
25811;DHT22;13645;52.460;13.910;2023-07-08T09:14:50;32.50;99.90
25811;DHT22;13645;52.460;13.910;2023-07-08T09:17:19;32.70;99.90
25811;DHT22;13645;52.460;13.910;2023-07-08T09:19:53;32.80;99.90
25811;DHT22;13645;52.460;13.910;2023-07-08T09:25:10;33.10;99.90
25811;DHT22;13645;52.460;13.910;2023-07-08T09:27:39;33.10;99.90
25811;DHT22;13645;52.460;13.910;2023-07-08T09:30:13;33.20;91.90
25811;DHT22;13645;52.460;13.910;2023-07-08T09:32:41;33.20;1.00
25811;DHT22;13645;52.460;13.910;2023-07-08T09:35:11;33.20;1.00
25811;DHT22;13645;52.460;13.910;2023-07-08T09:37:46;33.30;1.00
25811;DHT22;13645;52.460;13.910;2023-07-08T09:40:17;33.50;1.00
25811;DHT22;13645;52.460;13.910;2023-07-08T09:42:49;33.40;1.00
25811;DHT22;13645;52.460;13.910;2023-07-08T09:45:24;33.50;1.00
25811;DHT22;13645;52.460;13.910;2023-07-08T09:47:55;33.70;1.00
25811;DHT22;13645;52.460;13.910;2023-07-08T09:50:27;33.70;1.00
25811;DHT22;13645;52.460;13.910;2023-07-08T09:52:58;33.60;1.00
25811;DHT22;13645;52.460;13.910;2023-07-08T09:55:28;33.70;1.00
25811;DHT22;13645;52.460;13.910;2023-07-08T09:57:57;33.70;1.00
25811;DHT22;13645;52.460;13.910;2023-07-08T10:00:39;33.90;1.00
25811;DHT22;13645;52.460;13.910;2023-07-08T10:03:33;33.90;1.00
25811;DHT22;13645;52.460;13.910;2023-07-08T10:06:05;34.10;1.00
25811;DHT22;13645;52.460;13.910;2023-07-08T10:08:43;34.00;99.90
25811;DHT22;13645;52.460;13.910;2023-07-08T10:11:28;33.90;99.90
25811;DHT22;13645;52.460;13.910;2023-07-08T10:14:04;34.10;1.00
25811;DHT22;13645;52.460;13.910;2023-07-08T10:16:40;34.30;1.00
25811;DHT22;13645;52.460;13.910;2023-07-08T10:19:17;34.50;1.00
25811;DHT22;13645;52.460;13.910;2023-07-08T10:22:13;34.60;1.00
25811;DHT22;13645;52.460;13.910;2023-07-08T10:25:16;34.50;1.00
25811;DHT22;13645;52.460;13.910;2023-07-08T10:27:57;34.60;1.00
25811;DHT22;13645;52.460;13.910;2023-07-08T10:30:31;34.80;1.00
25811;DHT22;13645;52.460;13.910;2023-07-08T10:39:03;35.00;99.90
25811;DHT22;13645;52.460;13.910;2023-07-08T10:42:03;35.10;99.90
25811;DHT22;13645;52.460;13.910;2023-07-08T10:45:20;35.10;99.90
25811;DHT22;13645;52.460;13.910;2023-07-08T10:53:03;34.90;99.90
25811;DHT22;13645;52.460;13.910;2023-07-08T10:55:54;34.90;99.90
25811;DHT22;13645;52.460;13.910;2023-07-08T11:01:09;35.10;99.90
25811;DHT22;13645;52.460;13.910;2023-07-08T11:06:41;35.20;99.90
25811;DHT22;13645;52.460;13.910;2023-07-08T11:09:07;34.90;99.90
25811;DHT22;13645;52.460;13.910;2023-07-08T11:11:47;35.00;99.90
25811;DHT22;13645;52.460;13.910;2023-07-08T11:17:30;35.50;99.90
25811;DHT22;13645;52.460;13.910;2023-07-08T11:20:24;35.70;99.90
25811;DHT22;13645;52.460;13.910;2023-07-08T11:22:57;35.80;99.90
25811;DHT22;13645;52.460;13.910;2023-07-08T11:25:27;35.80;99.90
25811;DHT22;13645;52.460;13.910;2023-07-08T11:27:56;36.00;99.90
25811;DHT22;13645;52.460;13.910;2023-07-08T11:30:27;36.20;99.90
25811;DHT22;13645;52.460;13.910;2023-07-08T11:33:04;36.20;99.90
25811;DHT22;13645;52.460;13.910;2023-07-08T11:38:13;36.00;99.90
25811;DHT22;13645;52.460;13.910;2023-07-08T11:41:03;35.90;99.90
25811;DHT22;13645;52.460;13.910;2023-07-08T11:43:42;35.90;99.90
25811;DHT22;13645;52.460;13.910;2023-07-08T11:46:15;36.00;99.90
25811;DHT22;13645;52.460;13.910;2023-07-08T11:48:50;35.90;99.90
25811;DHT22;13645;52.460;13.910;2023-07-08T11:51:27;35.90;99.90
25811;DHT22;13645;52.460;13.910;2023-07-08T11:57:04;35.90;99.90
25811;DHT22;13645;52.460;13.910;2023-07-08T11:59:36;35.70;99.90
25811;DHT22;13645;52.460;13.910;2023-07-08T12:02:15;35.50;99.90
25811;DHT22;13645;52.460;13.910;2023-07-08T12:05:01;35.30;99.90
25811;DHT22;13645;52.460;13.910;2023-07-08T12:07:40;35.00;99.90
25811;DHT22;13645;52.460;13.910;2023-07-08T12:10:17;34.90;99.90
25811;DHT22;13645;52.460;13.910;2023-07-08T12:12:46;35.20;99.90
25811;DHT22;13645;52.460;13.910;2023-07-08T12:15:23;35.30;99.90
25811;DHT22;13645;52.460;13.910;2023-07-08T12:17:53;35.10;99.90
25811;DHT22;13645;52.460;13.910;2023-07-08T12:20:33;34.90;99.90
25811;DHT22;13645;52.460;13.910;2023-07-08T12:23:00;35.10;99.90
25811;DHT22;13645;52.460;13.910;2023-07-08T12:25:32;35.40;99.90
25811;DHT22;13645;52.460;13.910;2023-07-08T12:28:01;35.60;99.90
25811;DHT22;13645;52.460;13.910;2023-07-08T12:30:30;35.60;99.90
25811;DHT22;13645;52.460;13.910;2023-07-08T12:32:59;35.90;99.90
25811;DHT22;13645;52.460;13.910;2023-07-08T12:35:29;35.80;99.90
25811;DHT22;13645;52.460;13.910;2023-07-08T12:38:03;35.30;99.90
25811;DHT22;13645;52.460;13.910;2023-07-08T12:40:31;35.40;99.90
25811;DHT22;13645;52.460;13.910;2023-07-08T12:42:58;35.60;99.90
25811;DHT22;13645;52.460;13.910;2023-07-08T12:45:30;35.70;99.90
25811;DHT22;13645;52.460;13.910;2023-07-08T12:47:57;35.70;99.90
25811;DHT22;13645;52.460;13.910;2023-07-08T12:50:24;35.30;99.90
25811;DHT22;13645;52.460;13.910;2023-07-08T12:52:51;35.10;99.90
25811;DHT22;13645;52.460;13.910;2023-07-08T12:55:18;35.10;99.90
25811;DHT22;13645;52.460;13.910;2023-07-08T12:57:49;35.30;99.90
25811;DHT22;13645;52.460;13.910;2023-07-08T13:00:31;34.90;99.90
25811;DHT22;13645;52.460;13.910;2023-07-08T13:03:06;34.90;99.90
25811;DHT22;13645;52.460;13.910;2023-07-08T13:05:33;35.10;99.90
25811;DHT22;13645;52.460;13.910;2023-07-08T13:08:00;35.40;99.90
25811;DHT22;13645;52.460;13.910;2023-07-08T13:10:29;35.40;99.90
25811;DHT22;13645;52.460;13.910;2023-07-08T13:12:59;35.30;99.90
25811;DHT22;13645;52.460;13.910;2023-07-08T13:15:32;35.30;99.90
25811;DHT22;13645;52.460;13.910;2023-07-08T13:18:01;34.90;99.90
25811;DHT22;13645;52.460;13.910;2023-07-08T13:20:29;35.00;99.90
25811;DHT22;13645;52.460;13.910;2023-07-08T13:23:01;34.90;99.90
25811;DHT22;13645;52.460;13.910;2023-07-08T13:25:30;35.00;99.90
25811;DHT22;13645;52.460;13.910;2023-07-08T13:28:00;35.00;99.90
25811;DHT22;13645;52.460;13.910;2023-07-08T13:30:29;34.80;99.90
25811;DHT22;13645;52.460;13.910;2023-07-08T13:32:58;34.80;99.90
25811;DHT22;13645;52.460;13.910;2023-07-08T13:35:38;34.80;99.90
25811;DHT22;13645;52.460;13.910;2023-07-08T13:38:13;34.70;99.90
25811;DHT22;13645;52.460;13.910;2023-07-08T13:40:49;34.60;99.90
25811;DHT22;13645;52.460;13.910;2023-07-08T13:43:16;34.50;99.90
25811;DHT22;13645;52.460;13.910;2023-07-08T13:45:49;34.40;99.90
25811;DHT22;13645;52.460;13.910;2023-07-08T13:51:17;34.80;99.90
25811;DHT22;13645;52.460;13.910;2023-07-08T13:53:53;34.70;99.90
25811;DHT22;13645;52.460;13.910;2023-07-08T13:56:34;34.70;99.90
25811;DHT22;13645;52.460;13.910;2023-07-08T13:59:15;34.60;99.90
25811;DHT22;13645;52.460;13.910;2023-07-08T14:01:43;34.60;99.90
25811;DHT22;13645;52.460;13.910;2023-07-08T14:04:16;34.30;99.90
25811;DHT22;13645;52.460;13.910;2023-07-08T14:06:45;34.20;99.90
25811;DHT22;13645;52.460;13.910;2023-07-08T14:09:22;34.40;99.90
25811;DHT22;13645;52.460;13.910;2023-07-08T14:11:51;34.70;99.90
25811;DHT22;13645;52.460;13.910;2023-07-08T14:14:18;34.60;99.90
25811;DHT22;13645;52.460;13.910;2023-07-08T14:16:48;34.50;99.90
25811;DHT22;13645;52.460;13.910;2023-07-08T14:21:57;34.40;99.90
25811;DHT22;13645;52.460;13.910;2023-07-08T14:24:25;34.10;99.90
25811;DHT22;13645;52.460;13.910;2023-07-08T14:26:52;34.30;99.90
25811;DHT22;13645;52.460;13.910;2023-07-08T14:29:19;34.30;99.90
25811;DHT22;13645;52.460;13.910;2023-07-08T14:31:46;34.20;99.90
25811;DHT22;13645;52.460;13.910;2023-07-08T14:34:21;34.20;99.90
25811;DHT22;13645;52.460;13.910;2023-07-08T14:36:48;34.20;99.90
25811;DHT22;13645;52.460;13.910;2023-07-08T14:39:16;34.20;99.90
25811;DHT22;13645;52.460;13.910;2023-07-08T14:41:45;34.10;99.90
25811;DHT22;13645;52.460;13.910;2023-07-08T14:44:40;34.10;99.90
25811;DHT22;13645;52.460;13.910;2023-07-08T14:47:12;34.00;99.90
25811;DHT22;13645;52.460;13.910;2023-07-08T14:49:41;34.10;99.90
25811;DHT22;13645;52.460;13.910;2023-07-08T14:52:08;34.00;99.90
25811;DHT22;13645;52.460;13.910;2023-07-08T14:54:35;33.80;99.90
25811;DHT22;13645;52.460;13.910;2023-07-08T14:57:03;33.70;99.90
25811;DHT22;13645;52.460;13.910;2023-07-08T14:59:32;33.50;99.90
25811;DHT22;13645;52.460;13.910;2023-07-08T15:02:01;33.50;99.90
25811;DHT22;13645;52.460;13.910;2023-07-08T15:04:28;33.30;99.90
25811;DHT22;13645;52.460;13.910;2023-07-08T15:06:58;33.20;99.90
25811;DHT22;13645;52.460;13.910;2023-07-08T15:09:25;33.40;99.90
25811;DHT22;13645;52.460;13.910;2023-07-08T15:11:52;33.60;99.90
25811;DHT22;13645;52.460;13.910;2023-07-08T15:14:23;33.50;99.90
25811;DHT22;13645;52.460;13.910;2023-07-08T15:16:51;33.60;99.90
25811;DHT22;13645;52.460;13.910;2023-07-08T15:19:19;33.70;99.90
25811;DHT22;13645;52.460;13.910;2023-07-08T15:21:46;33.60;99.90
25811;DHT22;13645;52.460;13.910;2023-07-08T15:24:14;33.40;99.90
25811;DHT22;13645;52.460;13.910;2023-07-08T15:26:43;33.30;99.90
25811;DHT22;13645;52.460;13.910;2023-07-08T15:29:21;33.20;99.90
25811;DHT22;13645;52.460;13.910;2023-07-08T15:31:48;33.00;99.90
25811;DHT22;13645;52.460;13.910;2023-07-08T15:34:18;32.80;99.90
25811;DHT22;13645;52.460;13.910;2023-07-08T15:36:46;32.60;99.90
25811;DHT22;13645;52.460;13.910;2023-07-08T15:39:14;32.70;99.90
25811;DHT22;13645;52.460;13.910;2023-07-08T15:41:42;32.80;99.90
25811;DHT22;13645;52.460;13.910;2023-07-08T15:44:11;32.90;99.90
25811;DHT22;13645;52.460;13.910;2023-07-08T15:46:42;32.90;99.90
25811;DHT22;13645;52.460;13.910;2023-07-08T15:49:14;33.00;99.90
25811;DHT22;13645;52.460;13.910;2023-07-08T15:51:42;33.00;99.90
25811;DHT22;13645;52.460;13.910;2023-07-08T15:54:12;33.00;99.90
25811;DHT22;13645;52.460;13.910;2023-07-08T15:56:40;32.90;99.90
25811;DHT22;13645;52.460;13.910;2023-07-08T15:59:20;32.80;99.90
25811;DHT22;13645;52.460;13.910;2023-07-08T16:01:49;32.80;99.90
25811;DHT22;13645;52.460;13.910;2023-07-08T16:04:25;32.80;99.90
25811;DHT22;13645;52.460;13.910;2023-07-08T16:06:52;32.60;99.90
25811;DHT22;13645;52.460;13.910;2023-07-08T16:09:19;32.60;99.90
25811;DHT22;13645;52.460;13.910;2023-07-08T16:11:46;32.40;99.90
25811;DHT22;13645;52.460;13.910;2023-07-08T16:14:17;32.20;99.90
25811;DHT22;13645;52.460;13.910;2023-07-08T16:16:45;32.20;99.90
25811;DHT22;13645;52.460;13.910;2023-07-08T16:19:13;32.20;99.90
25811;DHT22;13645;52.460;13.910;2023-07-08T16:21:41;32.00;99.90
25811;DHT22;13645;52.460;13.910;2023-07-08T16:24:08;32.00;99.90